sensor_id;sensor_type;location;lat;lon;timestamp;P1;durP1;ratioP1;P2;durP2;ratioP2
42704;SDS011;28342;42.594;23.414;2023-03-26T00:01:41;1.63;;;1.10;;
42704;SDS011;28342;42.594;23.414;2023-03-26T00:04:11;1.85;;;0.88;;
42704;SDS011;28342;42.594;23.414;2023-03-26T00:06:37;1.15;;;0.80;;
42704;SDS011;28342;42.594;23.414;2023-03-26T00:09:07;0.50;;;0.50;;
42704;SDS011;28342;42.594;23.414;2023-03-26T00:11:33;0.57;;;0.57;;
42704;SDS011;28342;42.594;23.414;2023-03-26T00:13:59;1.02;;;0.50;;
42704;SDS011;28342;42.594;23.414;2023-03-26T00:16:28;0.60;;;0.60;;
42704;SDS011;28342;42.594;23.414;2023-03-26T00:18:55;0.50;;;0.50;;
42704;SDS011;28342;42.594;23.414;2023-03-26T00:21:22;0.70;;;0.57;;
42704;SDS011;28342;42.594;23.414;2023-03-26T00:24:13;0.75;;;0.60;;
42704;SDS011;28342;42.594;23.414;2023-03-26T00:26:39;2.38;;;0.80;;
42704;SDS011;28342;42.594;23.414;2023-03-26T00:29:05;0.60;;;0.57;;
42704;SDS011;28342;42.594;23.414;2023-03-26T00:31:32;0.57;;;0.40;;
42704;SDS011;28342;42.594;23.414;2023-03-26T00:33:58;0.47;;;0.47;;
42704;SDS011;28342;42.594;23.414;2023-03-26T00:36:27;0.93;;;0.55;;
42704;SDS011;28342;42.594;23.414;2023-03-26T00:38:53;0.75;;;0.57;;
42704;SDS011;28342;42.594;23.414;2023-03-26T00:41:19;0.50;;;0.50;;
42704;SDS011;28342;42.594;23.414;2023-03-26T00:43:56;0.88;;;0.52;;
42704;SDS011;28342;42.594;23.414;2023-03-26T00:46:23;0.40;;;0.40;;
42704;SDS011;28342;42.594;23.414;2023-03-26T00:48:50;0.70;;;0.57;;
42704;SDS011;28342;42.594;23.414;2023-03-26T00:51:16;1.25;;;0.80;;
42704;SDS011;28342;42.594;23.414;2023-03-26T00:53:43;2.42;;;0.80;;
42704;SDS011;28342;42.594;23.414;2023-03-26T00:56:12;1.25;;;0.70;;
42704;SDS011;28342;42.594;23.414;2023-03-26T00:58:39;0.77;;;0.60;;
42704;SDS011;28342;42.594;23.414;2023-03-26T01:01:06;1.48;;;0.82;;
42704;SDS011;28342;42.594;23.414;2023-03-26T01:03:34;0.90;;;0.80;;
42704;SDS011;28342;42.594;23.414;2023-03-26T01:06:03;0.73;;;0.73;;
42704;SDS011;28342;42.594;23.414;2023-03-26T01:13:45;1.50;;;0.80;;
42704;SDS011;28342;42.594;23.414;2023-03-26T01:16:16;1.08;;;0.60;;
42704;SDS011;28342;42.594;23.414;2023-03-26T01:18:54;0.88;;;0.70;;
42704;SDS011;28342;42.594;23.414;2023-03-26T01:21:23;1.08;;;0.77;;
42704;SDS011;28342;42.594;23.414;2023-03-26T01:23:55;1.27;;;0.70;;
42704;SDS011;28342;42.594;23.414;2023-03-26T01:29:03;1.30;;;0.93;;
42704;SDS011;28342;42.594;23.414;2023-03-26T01:31:36;0.80;;;0.70;;
42704;SDS011;28342;42.594;23.414;2023-03-26T01:34:29;1.60;;;0.90;;
42704;SDS011;28342;42.594;23.414;2023-03-26T01:42:34;0.70;;;0.70;;
42704;SDS011;28342;42.594;23.414;2023-03-26T01:45:12;2.83;;;1.02;;
42704;SDS011;28342;42.594;23.414;2023-03-26T01:47:42;0.82;;;0.80;;
42704;SDS011;28342;42.594;23.414;2023-03-26T01:50:14;0.90;;;0.80;;
42704;SDS011;28342;42.594;23.414;2023-03-26T01:52:39;0.88;;;0.80;;
42704;SDS011;28342;42.594;23.414;2023-03-26T01:55:05;0.85;;;0.85;;
42704;SDS011;28342;42.594;23.414;2023-03-26T02:00:14;0.73;;;0.73;;
42704;SDS011;28342;42.594;23.414;2023-03-26T02:05:49;0.82;;;0.80;;
42704;SDS011;28342;42.594;23.414;2023-03-26T02:08:34;1.38;;;1.00;;
42704;SDS011;28342;42.594;23.414;2023-03-26T02:11:09;1.67;;;1.08;;
42704;SDS011;28342;42.594;23.414;2023-03-26T02:13:38;1.80;;;0.90;;
42704;SDS011;28342;42.594;23.414;2023-03-26T02:16:06;1.65;;;1.30;;
42704;SDS011;28342;42.594;23.414;2023-03-26T02:18:33;7.75;;;3.75;;
42704;SDS011;28342;42.594;23.414;2023-03-26T02:21:07;4.55;;;2.33;;
42704;SDS011;28342;42.594;23.414;2023-03-26T02:23:35;2.30;;;1.60;;
42704;SDS011;28342;42.594;23.414;2023-03-26T02:26:12;3.60;;;1.33;;
42704;SDS011;28342;42.594;23.414;2023-03-26T02:28:39;2.92;;;1.10;;
42704;SDS011;28342;42.594;23.414;2023-03-26T02:31:05;1.55;;;1.02;;
42704;SDS011;28342;42.594;23.414;2023-03-26T02:33:33;1.23;;;1.10;;
42704;SDS011;28342;42.594;23.414;2023-03-26T02:36:00;1.40;;;1.27;;
42704;SDS011;28342;42.594;23.414;2023-03-26T02:38:27;4.30;;;1.30;;
42704;SDS011;28342;42.594;23.414;2023-03-26T02:40:54;1.42;;;0.93;;
42704;SDS011;28342;42.594;23.414;2023-03-26T02:43:20;1.27;;;1.17;;
42704;SDS011;28342;42.594;23.414;2023-03-26T02:45:48;1.58;;;1.20;;
42704;SDS011;28342;42.594;23.414;2023-03-26T02:48:13;2.35;;;1.35;;
42704;SDS011;28342;42.594;23.414;2023-03-26T02:50:40;1.20;;;1.02;;
42704;SDS011;28342;42.594;23.414;2023-03-26T02:53:06;1.50;;;1.40;;
42704;SDS011;28342;42.594;23.414;2023-03-26T02:55:31;2.08;;;1.38;;
42704;SDS011;28342;42.594;23.414;2023-03-26T02:57:57;2.40;;;1.67;;
42704;SDS011;28342;42.594;23.414;2023-03-26T03:00:22;5.10;;;1.15;;
42704;SDS011;28342;42.594;23.414;2023-03-26T03:02:50;1.70;;;1.50;;
42704;SDS011;28342;42.594;23.414;2023-03-26T03:05:16;1.38;;;1.20;;
42704;SDS011;28342;42.594;23.414;2023-03-26T03:07:43;1.83;;;1.25;;
42704;SDS011;28342;42.594;23.414;2023-03-26T03:10:10;1.45;;;1.30;;
42704;SDS011;28342;42.594;23.414;2023-03-26T03:12:38;1.63;;;1.35;;
42704;SDS011;28342;42.594;23.414;2023-03-26T03:15:04;1.45;;;1.20;;
42704;SDS011;28342;42.594;23.414;2023-03-26T03:17:31;2.75;;;1.67;;
42704;SDS011;28342;42.594;23.414;2023-03-26T03:19:56;1.95;;;1.40;;
42704;SDS011;28342;42.594;23.414;2023-03-26T03:22:22;2.10;;;1.50;;
42704;SDS011;28342;42.594;23.414;2023-03-26T03:24:47;3.45;;;1.90;;
42704;SDS011;28342;42.594;23.414;2023-03-26T03:27:13;4.15;;;1.50;;
42704;SDS011;28342;42.594;23.414;2023-03-26T03:29:39;1.80;;;1.70;;
42704;SDS011;28342;42.594;23.414;2023-03-26T03:32:06;3.42;;;1.45;;
42704;SDS011;28342;42.594;23.414;2023-03-26T03:34:31;1.67;;;1.58;;
42704;SDS011;28342;42.594;23.414;2023-03-26T03:36:57;1.67;;;1.52;;
42704;SDS011;28342;42.594;23.414;2023-03-26T03:39:22;8.02;;;2.05;;
42704;SDS011;28342;42.594;23.414;2023-03-26T03:41:48;2.67;;;2.38;;
42704;SDS011;28342;42.594;23.414;2023-03-26T03:44:14;2.70;;;2.45;;
42704;SDS011;28342;42.594;23.414;2023-03-26T03:46:39;2.58;;;2.38;;
42704;SDS011;28342;42.594;23.414;2023-03-26T03:49:05;5.20;;;2.78;;
42704;SDS011;28342;42.594;23.414;2023-03-26T03:51:31;2.97;;;2.60;;
42704;SDS011;28342;42.594;23.414;2023-03-26T03:53:58;2.50;;;2.30;;
42704;SDS011;28342;42.594;23.414;2023-03-26T03:56:24;5.55;;;3.42;;
42704;SDS011;28342;42.594;23.414;2023-03-26T03:58:50;3.97;;;3.13;;
42704;SDS011;28342;42.594;23.414;2023-03-26T04:01:15;3.17;;;2.88;;
42704;SDS011;28342;42.594;23.414;2023-03-26T04:03:41;3.65;;;3.05;;
42704;SDS011;28342;42.594;23.414;2023-03-26T04:06:10;4.82;;;3.60;;
42704;SDS011;28342;42.594;23.414;2023-03-26T04:08:36;3.40;;;2.90;;
42704;SDS011;28342;42.594;23.414;2023-03-26T04:11:02;3.47;;;3.15;;
42704;SDS011;28342;42.594;23.414;2023-03-26T04:13:28;3.78;;;3.13;;
42704;SDS011;28342;42.594;23.414;2023-03-26T04:15:53;3.50;;;3.20;;
42704;SDS011;28342;42.594;23.414;2023-03-26T04:18:20;3.83;;;3.40;;
42704;SDS011;28342;42.594;23.414;2023-03-26T04:20:47;4.43;;;3.40;;
42704;SDS011;28342;42.594;23.414;2023-03-26T04:23:13;3.20;;;2.90;;
42704;SDS011;28342;42.594;23.414;2023-03-26T04:25:41;4.38;;;3.33;;
42704;SDS011;28342;42.594;23.414;2023-03-26T04:28:10;4.03;;;3.35;;
42704;SDS011;28342;42.594;23.414;2023-03-26T04:31:00;5.30;;;3.50;;
42704;SDS011;28342;42.594;23.414;2023-03-26T04:33:31;4.45;;;3.42;;
42704;SDS011;28342;42.594;23.414;2023-03-26T04:35:58;5.80;;;3.58;;
42704;SDS011;28342;42.594;23.414;2023-03-26T04:38:30;6.18;;;3.42;;
42704;SDS011;28342;42.594;23.414;2023-03-26T04:41:02;4.68;;;3.70;;
42704;SDS011;28342;42.594;23.414;2023-03-26T04:43:31;4.57;;;3.60;;
42704;SDS011;28342;42.594;23.414;2023-03-26T04:45:59;4.72;;;3.58;;
42704;SDS011;28342;42.594;23.414;2023-03-26T04:48:27;3.60;;;3.25;;
42704;SDS011;28342;42.594;23.414;2023-03-26T04:50:53;3.78;;;3.22;;
42704;SDS011;28342;42.594;23.414;2023-03-26T04:53:18;4.05;;;3.33;;
42704;SDS011;28342;42.594;23.414;2023-03-26T04:55:48;5.07;;;3.38;;
42704;SDS011;28342;42.594;23.414;2023-03-26T04:58:19;4.10;;;3.30;;
42704;SDS011;28342;42.594;23.414;2023-03-26T05:00:45;3.88;;;3.45;;
42704;SDS011;28342;42.594;23.414;2023-03-26T05:03:11;5.43;;;4.05;;
42704;SDS011;28342;42.594;23.414;2023-03-26T05:05:37;3.65;;;3.30;;
42704;SDS011;28342;42.594;23.414;2023-03-26T05:08:04;4.35;;;3.50;;
42704;SDS011;28342;42.594;23.414;2023-03-26T05:10:30;4.18;;;3.47;;
42704;SDS011;28342;42.594;23.414;2023-03-26T05:12:56;5.20;;;3.92;;
42704;SDS011;28342;42.594;23.414;2023-03-26T05:15:22;4.25;;;3.78;;
42704;SDS011;28342;42.594;23.414;2023-03-26T05:17:47;4.28;;;3.88;;
42704;SDS011;28342;42.594;23.414;2023-03-26T05:20:23;6.43;;;4.60;;
42704;SDS011;28342;42.594;23.414;2023-03-26T05:22:50;6.30;;;4.65;;
42704;SDS011;28342;42.594;23.414;2023-03-26T05:25:17;5.38;;;4.65;;
42704;SDS011;28342;42.594;23.414;2023-03-26T05:27:43;5.18;;;4.68;;
42704;SDS011;28342;42.594;23.414;2023-03-26T05:30:11;6.35;;;4.70;;
42704;SDS011;28342;42.594;23.414;2023-03-26T05:32:39;7.10;;;4.85;;
42704;SDS011;28342;42.594;23.414;2023-03-26T05:35:05;6.18;;;4.90;;
42704;SDS011;28342;42.594;23.414;2023-03-26T05:37:31;7.10;;;5.35;;
42704;SDS011;28342;42.594;23.414;2023-03-26T05:39:57;6.47;;;5.22;;
42704;SDS011;28342;42.594;23.414;2023-03-26T05:42:24;6.78;;;5.05;;
42704;SDS011;28342;42.594;23.414;2023-03-26T05:44:49;6.22;;;5.35;;
42704;SDS011;28342;42.594;23.414;2023-03-26T05:47:15;6.93;;;6.22;;
42704;SDS011;28342;42.594;23.414;2023-03-26T05:49:40;6.15;;;5.53;;
42704;SDS011;28342;42.594;23.414;2023-03-26T05:52:07;8.35;;;6.13;;
42704;SDS011;28342;42.594;23.414;2023-03-26T05:54:33;8.90;;;6.57;;
42704;SDS011;28342;42.594;23.414;2023-03-26T05:56:58;7.00;;;6.30;;
42704;SDS011;28342;42.594;23.414;2023-03-26T05:59:24;7.70;;;6.55;;
42704;SDS011;28342;42.594;23.414;2023-03-26T06:01:50;7.88;;;6.25;;
42704;SDS011;28342;42.594;23.414;2023-03-26T06:04:18;8.98;;;6.68;;
42704;SDS011;28342;42.594;23.414;2023-03-26T06:06:45;7.72;;;6.38;;
42704;SDS011;28342;42.594;23.414;2023-03-26T06:09:11;7.63;;;6.03;;
42704;SDS011;28342;42.594;23.414;2023-03-26T06:11:37;8.88;;;6.05;;
42704;SDS011;28342;42.594;23.414;2023-03-26T06:14:04;9.95;;;6.93;;
42704;SDS011;28342;42.594;23.414;2023-03-26T06:16:30;9.43;;;6.68;;
42704;SDS011;28342;42.594;23.414;2023-03-26T06:18:57;7.80;;;6.63;;
42704;SDS011;28342;42.594;23.414;2023-03-26T06:21:23;8.18;;;6.68;;
42704;SDS011;28342;42.594;23.414;2023-03-26T06:23:49;8.00;;;5.95;;
42704;SDS011;28342;42.594;23.414;2023-03-26T06:26:15;6.68;;;5.93;;
42704;SDS011;28342;42.594;23.414;2023-03-26T06:28:41;8.43;;;5.60;;
42704;SDS011;28342;42.594;23.414;2023-03-26T06:31:07;6.70;;;5.50;;
42704;SDS011;28342;42.594;23.414;2023-03-26T06:33:32;6.72;;;6.00;;
42704;SDS011;28342;42.594;23.414;2023-03-26T06:35:57;6.03;;;5.38;;
42704;SDS011;28342;42.594;23.414;2023-03-26T06:38:23;7.25;;;5.57;;
42704;SDS011;28342;42.594;23.414;2023-03-26T06:40:48;6.13;;;5.03;;
42704;SDS011;28342;42.594;23.414;2023-03-26T06:43:14;11.30;;;6.57;;
42704;SDS011;28342;42.594;23.414;2023-03-26T06:45:40;7.32;;;6.55;;
42704;SDS011;28342;42.594;23.414;2023-03-26T06:48:05;7.93;;;6.30;;
42704;SDS011;28342;42.594;23.414;2023-03-26T06:50:31;7.28;;;6.03;;
42704;SDS011;28342;42.594;23.414;2023-03-26T06:52:56;7.47;;;6.50;;
42704;SDS011;28342;42.594;23.414;2023-03-26T06:55:22;9.45;;;6.03;;
42704;SDS011;28342;42.594;23.414;2023-03-26T06:57:52;9.52;;;6.07;;
42704;SDS011;28342;42.594;23.414;2023-03-26T07:00:22;7.28;;;6.53;;
42704;SDS011;28342;42.594;23.414;2023-03-26T07:02:47;9.45;;;6.32;;
42704;SDS011;28342;42.594;23.414;2023-03-26T07:05:13;7.55;;;6.13;;
42704;SDS011;28342;42.594;23.414;2023-03-26T07:07:39;8.20;;;6.13;;
42704;SDS011;28342;42.594;23.414;2023-03-26T07:10:05;7.32;;;6.18;;
42704;SDS011;28342;42.594;23.414;2023-03-26T07:12:31;8.43;;;7.03;;
42704;SDS011;28342;42.594;23.414;2023-03-26T07:14:57;8.75;;;6.13;;
42704;SDS011;28342;42.594;23.414;2023-03-26T07:17:24;6.75;;;5.93;;
42704;SDS011;28342;42.594;23.414;2023-03-26T07:19:50;7.18;;;5.63;;
42704;SDS011;28342;42.594;23.414;2023-03-26T07:22:21;8.50;;;5.43;;
42704;SDS011;28342;42.594;23.414;2023-03-26T07:24:48;14.63;;;6.00;;
42704;SDS011;28342;42.594;23.414;2023-03-26T07:27:31;8.18;;;5.80;;
42704;SDS011;28342;42.594;23.414;2023-03-26T07:30:10;7.18;;;5.70;;
42704;SDS011;28342;42.594;23.414;2023-03-26T07:32:39;15.80;;;6.75;;
42704;SDS011;28342;42.594;23.414;2023-03-26T07:35:12;8.38;;;6.18;;
42704;SDS011;28342;42.594;23.414;2023-03-26T07:46:01;7.07;;;5.82;;
42704;SDS011;28342;42.594;23.414;2023-03-26T07:48:29;7.35;;;5.20;;
42704;SDS011;28342;42.594;23.414;2023-03-26T07:51:05;5.80;;;4.72;;
42704;SDS011;28342;42.594;23.414;2023-03-26T07:53:31;5.75;;;5.05;;
42704;SDS011;28342;42.594;23.414;2023-03-26T07:56:00;5.57;;;4.63;;
42704;SDS011;28342;42.594;23.414;2023-03-26T07:58:39;5.50;;;4.68;;
42704;SDS011;28342;42.594;23.414;2023-03-26T08:06:52;5.15;;;4.35;;
42704;SDS011;28342;42.594;23.414;2023-03-26T08:12:32;4.68;;;3.90;;
42704;SDS011;28342;42.594;23.414;2023-03-26T08:20:36;7.03;;;3.50;;
42704;SDS011;28342;42.594;23.414;2023-03-26T08:28:52;4.63;;;3.90;;
42704;SDS011;28342;42.594;23.414;2023-03-26T08:31:35;3.72;;;3.30;;
42704;SDS011;28342;42.594;23.414;2023-03-26T08:34:03;4.45;;;3.40;;
42704;SDS011;28342;42.594;23.414;2023-03-26T08:36:29;3.35;;;3.05;;
42704;SDS011;28342;42.594;23.414;2023-03-26T08:38:55;4.35;;;3.45;;
42704;SDS011;28342;42.594;23.414;2023-03-26T09:02:31;3.13;;;1.83;;
42704;SDS011;28342;42.594;23.414;2023-03-26T09:10:45;3.17;;;2.60;;
42704;SDS011;28342;42.594;23.414;2023-03-26T09:27:29;5.18;;;1.60;;
42704;SDS011;28342;42.594;23.414;2023-03-26T09:38:55;3.10;;;1.50;;
42704;SDS011;28342;42.594;23.414;2023-03-26T09:47:02;2.08;;;1.40;;
42704;SDS011;28342;42.594;23.414;2023-03-26T10:00:28;2.03;;;1.70;;
42704;SDS011;28342;42.594;23.414;2023-03-26T10:06:01;1.92;;;1.27;;
42704;SDS011;28342;42.594;23.414;2023-03-26T10:08:54;3.85;;;1.55;;
42704;SDS011;28342;42.594;23.414;2023-03-26T10:14:41;1.52;;;1.20;;
42704;SDS011;28342;42.594;23.414;2023-03-26T10:17:19;1.38;;;1.27;;
42704;SDS011;28342;42.594;23.414;2023-03-26T10:19:52;3.38;;;1.35;;
42704;SDS011;28342;42.594;23.414;2023-03-26T10:25:12;3.10;;;1.55;;
42704;SDS011;28342;42.594;23.414;2023-03-26T10:35:43;1.73;;;1.40;;
42704;SDS011;28342;42.594;23.414;2023-03-26T10:39:13;2.22;;;1.50;;
42704;SDS011;28342;42.594;23.414;2023-03-26T10:52:17;3.55;;;1.30;;
42704;SDS011;28342;42.594;23.414;2023-03-26T11:00:15;1.98;;;1.35;;
42704;SDS011;28342;42.594;23.414;2023-03-26T11:02:57;2.20;;;1.33;;
42704;SDS011;28342;42.594;23.414;2023-03-26T11:11:19;2.08;;;1.13;;
42704;SDS011;28342;42.594;23.414;2023-03-26T11:20:02;1.65;;;1.55;;
42704;SDS011;28342;42.594;23.414;2023-03-26T11:30:57;2.58;;;1.27;;
42704;SDS011;28342;42.594;23.414;2023-03-26T11:33:36;1.23;;;0.95;;
42704;SDS011;28342;42.594;23.414;2023-03-26T11:36:09;1.85;;;0.80;;
42704;SDS011;28342;42.594;23.414;2023-03-26T11:38:42;1.10;;;1.00;;
42704;SDS011;28342;42.594;23.414;2023-03-26T11:41:14;2.88;;;1.80;;
42704;SDS011;28342;42.594;23.414;2023-03-26T11:43:42;3.38;;;1.40;;
42704;SDS011;28342;42.594;23.414;2023-03-26T11:46:14;3.72;;;1.13;;
42704;SDS011;28342;42.594;23.414;2023-03-26T11:48:45;0.90;;;0.90;;
42704;SDS011;28342;42.594;23.414;2023-03-26T11:51:28;3.60;;;1.90;;
42704;SDS011;28342;42.594;23.414;2023-03-26T11:53:57;2.10;;;0.90;;
42704;SDS011;28342;42.594;23.414;2023-03-26T11:59:14;5.63;;;2.45;;
42704;SDS011;28342;42.594;23.414;2023-03-26T12:01:50;0.93;;;0.88;;
42704;SDS011;28342;42.594;23.414;2023-03-26T12:04:34;1.10;;;1.00;;
42704;SDS011;28342;42.594;23.414;2023-03-26T12:07:07;0.98;;;0.90;;
42704;SDS011;28342;42.594;23.414;2023-03-26T12:09:53;1.27;;;0.70;;
42704;SDS011;28342;42.594;23.414;2023-03-26T12:12:24;3.17;;;1.30;;
42704;SDS011;28342;42.594;23.414;2023-03-26T12:14:51;9.50;;;1.73;;
42704;SDS011;28342;42.594;23.414;2023-03-26T12:17:26;1.60;;;1.17;;
42704;SDS011;28342;42.594;23.414;2023-03-26T12:19:58;24.77;;;2.92;;
42704;SDS011;28342;42.594;23.414;2023-03-26T12:25:27;2.28;;;0.90;;
42704;SDS011;28342;42.594;23.414;2023-03-26T12:30:28;1.52;;;0.98;;
42704;SDS011;28342;42.594;23.414;2023-03-26T12:32:59;2.55;;;1.40;;
42704;SDS011;28342;42.594;23.414;2023-03-26T12:35:29;2.03;;;1.10;;
42704;SDS011;28342;42.594;23.414;2023-03-26T12:46:26;0.85;;;0.70;;
42704;SDS011;28342;42.594;23.414;2023-03-26T12:48:57;1.02;;;0.85;;
42704;SDS011;28342;42.594;23.414;2023-03-26T13:18:49;2.03;;;1.25;;
42704;SDS011;28342;42.594;23.414;2023-03-26T13:29:53;2.35;;;0.90;;
42704;SDS011;28342;42.594;23.414;2023-03-26T13:33:09;1.10;;;0.90;;
42704;SDS011;28342;42.594;23.414;2023-03-26T13:36:12;1.70;;;1.10;;
42704;SDS011;28342;42.594;23.414;2023-03-26T13:41:06;5.32;;;1.20;;
42704;SDS011;28342;42.594;23.414;2023-03-26T13:46:26;1.98;;;1.50;;
42704;SDS011;28342;42.594;23.414;2023-03-26T13:54:42;1.55;;;1.45;;
42704;SDS011;28342;42.594;23.414;2023-03-26T13:57:32;3.15;;;1.70;;
42704;SDS011;28342;42.594;23.414;2023-03-26T14:00:13;1.55;;;0.80;;
42704;SDS011;28342;42.594;23.414;2023-03-26T14:02:46;2.08;;;0.80;;
42704;SDS011;28342;42.594;23.414;2023-03-26T14:05:28;0.98;;;0.88;;
42704;SDS011;28342;42.594;23.414;2023-03-26T14:09:01;3.63;;;2.35;;
42704;SDS011;28342;42.594;23.414;2023-03-26T14:11:02;1.88;;;0.90;;
42704;SDS011;28342;42.594;23.414;2023-03-26T14:21:27;1.45;;;0.70;;
42704;SDS011;28342;42.594;23.414;2023-03-26T14:32:36;2.00;;;1.40;;
42704;SDS011;28342;42.594;23.414;2023-03-26T14:35:32;7.53;;;1.25;;
42704;SDS011;28342;42.594;23.414;2023-03-26T14:44:02;2.00;;;1.05;;
42704;SDS011;28342;42.594;23.414;2023-03-26T14:52:08;7.30;;;1.27;;
42704;SDS011;28342;42.594;23.414;2023-03-26T14:54:44;1.90;;;1.33;;
42704;SDS011;28342;42.594;23.414;2023-03-26T15:02:29;4.03;;;0.95;;
42704;SDS011;28342;42.594;23.414;2023-03-26T15:27:41;2.15;;;1.52;;
42704;SDS011;28342;42.594;23.414;2023-03-26T15:30:25;2.90;;;1.08;;
42704;SDS011;28342;42.594;23.414;2023-03-26T15:35:56;2.72;;;1.60;;
42704;SDS011;28342;42.594;23.414;2023-03-26T15:47:54;7.47;;;4.30;;
42704;SDS011;28342;42.594;23.414;2023-03-26T15:55:26;2.35;;;1.40;;
42704;SDS011;28342;42.594;23.414;2023-03-26T15:58:04;7.35;;;4.57;;
42704;SDS011;28342;42.594;23.414;2023-03-26T16:03:23;3.33;;;1.70;;
42704;SDS011;28342;42.594;23.414;2023-03-26T16:06:16;4.38;;;2.38;;
42704;SDS011;28342;42.594;23.414;2023-03-26T16:09:00;5.15;;;2.08;;
42704;SDS011;28342;42.594;23.414;2023-03-26T16:17:07;3.53;;;2.38;;
42704;SDS011;28342;42.594;23.414;2023-03-26T16:27:41;20.75;;;11.90;;
42704;SDS011;28342;42.594;23.414;2023-03-26T16:32:35;19.08;;;10.52;;
42704;SDS011;28342;42.594;23.414;2023-03-26T16:42:46;13.60;;;5.97;;
42704;SDS011;28342;42.594;23.414;2023-03-26T16:45:16;10.95;;;5.47;;
42704;SDS011;28342;42.594;23.414;2023-03-26T16:58:48;27.60;;;15.30;;
42704;SDS011;28342;42.594;23.414;2023-03-26T17:04:22;14.93;;;8.45;;
42704;SDS011;28342;42.594;23.414;2023-03-26T17:12:17;16.05;;;8.73;;
42704;SDS011;28342;42.594;23.414;2023-03-26T17:20:07;15.02;;;8.85;;
42704;SDS011;28342;42.594;23.414;2023-03-26T17:22:46;13.65;;;7.35;;
42704;SDS011;28342;42.594;23.414;2023-03-26T17:31:17;13.13;;;7.15;;
42704;SDS011;28342;42.594;23.414;2023-03-26T17:33:45;14.68;;;7.63;;
42704;SDS011;28342;42.594;23.414;2023-03-26T17:41:03;51.58;;;23.88;;
42704;SDS011;28342;42.594;23.414;2023-03-26T17:43:37;55.55;;;24.90;;
42704;SDS011;28342;42.594;23.414;2023-03-26T17:46:21;78.57;;;36.95;;
42704;SDS011;28342;42.594;23.414;2023-03-26T17:49:02;51.90;;;25.90;;
42704;SDS011;28342;42.594;23.414;2023-03-26T17:51:45;36.90;;;19.73;;
42704;SDS011;28342;42.594;23.414;2023-03-26T17:54:24;44.58;;;24.60;;
42704;SDS011;28342;42.594;23.414;2023-03-26T17:56:54;42.75;;;25.90;;
42704;SDS011;28342;42.594;23.414;2023-03-26T17:59:25;33.92;;;19.30;;
42704;SDS011;28342;42.594;23.414;2023-03-26T18:04:40;9.77;;;5.50;;
42704;SDS011;28342;42.594;23.414;2023-03-26T18:07:15;9.13;;;3.97;;
42704;SDS011;28342;42.594;23.414;2023-03-26T18:10:26;8.07;;;4.40;;
42704;SDS011;28342;42.594;23.414;2023-03-26T18:16:14;4.70;;;2.85;;
42704;SDS011;28342;42.594;23.414;2023-03-26T18:21:46;6.38;;;3.92;;
42704;SDS011;28342;42.594;23.414;2023-03-26T18:24:21;8.95;;;4.28;;
42704;SDS011;28342;42.594;23.414;2023-03-26T18:34:47;7.80;;;4.63;;
42704;SDS011;28342;42.594;23.414;2023-03-26T18:37:23;9.43;;;4.82;;
42704;SDS011;28342;42.594;23.414;2023-03-26T18:40:12;8.70;;;4.88;;
42704;SDS011;28342;42.594;23.414;2023-03-26T18:42:46;9.45;;;5.00;;
42704;SDS011;28342;42.594;23.414;2023-03-26T18:47:47;8.15;;;4.45;;
42704;SDS011;28342;42.594;23.414;2023-03-26T18:50:15;9.93;;;4.53;;
42704;SDS011;28342;42.594;23.414;2023-03-26T18:52:47;8.52;;;4.20;;
42704;SDS011;28342;42.594;23.414;2023-03-26T18:55:13;9.25;;;3.63;;
42704;SDS011;28342;42.594;23.414;2023-03-26T18:57:40;7.78;;;3.55;;
42704;SDS011;28342;42.594;23.414;2023-03-26T19:00:17;7.32;;;3.05;;
42704;SDS011;28342;42.594;23.414;2023-03-26T19:02:49;5.32;;;3.03;;
42704;SDS011;28342;42.594;23.414;2023-03-26T19:05:21;4.35;;;2.60;;
42704;SDS011;28342;42.594;23.414;2023-03-26T19:07:47;11.07;;;3.90;;
42704;SDS011;28342;42.594;23.414;2023-03-26T19:10:14;10.43;;;4.97;;
42704;SDS011;28342;42.594;23.414;2023-03-26T19:12:44;9.95;;;4.78;;
42704;SDS011;28342;42.594;23.414;2023-03-26T19:15:14;10.45;;;5.63;;
42704;SDS011;28342;42.594;23.414;2023-03-26T19:17:45;8.77;;;4.30;;
42704;SDS011;28342;42.594;23.414;2023-03-26T19:22:46;6.47;;;2.95;;
42704;SDS011;28342;42.594;23.414;2023-03-26T19:25:20;6.30;;;3.13;;
42704;SDS011;28342;42.594;23.414;2023-03-26T19:27:49;7.55;;;3.65;;
42704;SDS011;28342;42.594;23.414;2023-03-26T19:30:28;8.32;;;3.35;;
42704;SDS011;28342;42.594;23.414;2023-03-26T19:33:11;6.57;;;3.22;;
42704;SDS011;28342;42.594;23.414;2023-03-26T19:35:43;6.40;;;3.45;;
42704;SDS011;28342;42.594;23.414;2023-03-26T19:38:21;6.20;;;2.72;;
42704;SDS011;28342;42.594;23.414;2023-03-26T19:40:49;5.05;;;2.85;;
42704;SDS011;28342;42.594;23.414;2023-03-26T19:43:18;10.95;;;4.07;;
42704;SDS011;28342;42.594;23.414;2023-03-26T19:45:44;6.43;;;3.05;;
42704;SDS011;28342;42.594;23.414;2023-03-26T19:48:12;7.43;;;3.80;;
42704;SDS011;28342;42.594;23.414;2023-03-26T19:50:42;6.13;;;3.65;;
42704;SDS011;28342;42.594;23.414;2023-03-26T19:53:20;7.93;;;3.92;;
42704;SDS011;28342;42.594;23.414;2023-03-26T19:58:20;7.10;;;4.88;;
42704;SDS011;28342;42.594;23.414;2023-03-26T20:00:46;9.20;;;5.57;;
42704;SDS011;28342;42.594;23.414;2023-03-26T20:03:11;8.05;;;4.75;;
42704;SDS011;28342;42.594;23.414;2023-03-26T20:05:40;10.15;;;4.85;;
42704;SDS011;28342;42.594;23.414;2023-03-26T20:08:13;6.03;;;3.40;;
42704;SDS011;28342;42.594;23.414;2023-03-26T20:10:39;3.78;;;2.30;;
42704;SDS011;28342;42.594;23.414;2023-03-26T20:13:13;5.35;;;2.60;;
42704;SDS011;28342;42.594;23.414;2023-03-26T20:15:51;3.97;;;2.22;;
42704;SDS011;28342;42.594;23.414;2023-03-26T20:18:22;2.88;;;1.55;;
42704;SDS011;28342;42.594;23.414;2023-03-26T20:20:49;6.72;;;1.90;;
42704;SDS011;28342;42.594;23.414;2023-03-26T20:23:17;3.83;;;2.00;;
42704;SDS011;28342;42.594;23.414;2023-03-26T20:25:47;2.22;;;1.60;;
42704;SDS011;28342;42.594;23.414;2023-03-26T20:28:16;8.40;;;1.67;;
42704;SDS011;28342;42.594;23.414;2023-03-26T20:30:46;6.38;;;1.92;;
42704;SDS011;28342;42.594;23.414;2023-03-26T20:33:17;37.17;;;20.00;;
42704;SDS011;28342;42.594;23.414;2023-03-26T20:35:49;46.13;;;20.35;;
42704;SDS011;28342;42.594;23.414;2023-03-26T20:38:18;23.67;;;9.32;;
42704;SDS011;28342;42.594;23.414;2023-03-26T20:40:43;2.92;;;1.73;;
42704;SDS011;28342;42.594;23.414;2023-03-26T20:43:10;2.40;;;1.70;;
42704;SDS011;28342;42.594;23.414;2023-03-26T20:45:37;28.38;;;14.60;;
42704;SDS011;28342;42.594;23.414;2023-03-26T20:48:03;12.10;;;6.15;;
42704;SDS011;28342;42.594;23.414;2023-03-26T20:50:29;6.10;;;2.20;;
42704;SDS011;28342;42.594;23.414;2023-03-26T20:52:54;3.17;;;1.55;;
42704;SDS011;28342;42.594;23.414;2023-03-26T20:55:20;4.30;;;2.13;;
42704;SDS011;28342;42.594;23.414;2023-03-26T20:57:46;4.40;;;2.03;;
42704;SDS011;28342;42.594;23.414;2023-03-26T21:00:13;3.72;;;2.13;;
42704;SDS011;28342;42.594;23.414;2023-03-26T21:02:46;3.92;;;2.40;;
42704;SDS011;28342;42.594;23.414;2023-03-26T21:05:19;5.15;;;1.88;;
42704;SDS011;28342;42.594;23.414;2023-03-26T21:07:58;3.20;;;2.35;;
42704;SDS011;28342;42.594;23.414;2023-03-26T21:10:25;3.50;;;2.28;;
42704;SDS011;28342;42.594;23.414;2023-03-26T21:15:50;4.55;;;2.97;;
42704;SDS011;28342;42.594;23.414;2023-03-26T21:20:47;5.60;;;2.78;;
42704;SDS011;28342;42.594;23.414;2023-03-26T21:23:28;8.68;;;3.30;;
42704;SDS011;28342;42.594;23.414;2023-03-26T21:26:46;8.13;;;3.13;;
42704;SDS011;28342;42.594;23.414;2023-03-26T21:29:02;7.30;;;3.10;;
42704;SDS011;28342;42.594;23.414;2023-03-26T21:31:28;6.97;;;3.50;;